Time;durP1;ratioP1;P1;durP2;ratioP2;P2;SDS_P1;SDS_P2;PMS_P1;PMS_P2;Temp;Humidity;BMP_temperature;BMP_pressure;BME280_temperature;BME280_humidity;BME280_pressure;Samples;Min_cycle;Max_cycle;Signal;HPM_P1;HPM_P2
2021/06/06 00:00:34;;;;;;;24.35;17.65;;;;;;;12.07;78.90;99294.00;4139078;84;21026;-79
2021/06/06 00:06:38;;;;;;;22.65;17.37;;;;;;;11.81;78.76;99299.02;4153816;85;21071;-78
2021/06/06 00:12:40;;;;;;;26.15;17.95;;;;;;;11.73;79.29;99295.98;4150654;84;21544;-78
2021/06/06 00:18:41;;;;;;;25.62;18.10;;;;;;;11.68;79.27;99294.94;4205159;84;21306;-79
2021/06/06 00:24:44;;;;;;;18.50;14.93;;;;;;;11.51;79.32;99295.49;4111623;85;21051;-79
2021/06/06 00:30:45;;;;;;;23.65;16.82;;;;;;;11.48;79.60;99305.84;4108621;85;21078;-78
2021/06/06 00:36:47;;;;;;;24.23;16.50;;;;;;;11.48;79.36;99306.44;4082180;86;21086;-79
2021/06/06 00:42:52;;;;;;;20.25;13.93;;;;;;;11.29;79.49;99306.58;4115793;86;21063;-78
2021/06/06 00:48:55;;;;;;;21.52;15.65;;;;;;;11.27;80.12;99313.00;4102830;86;21064;-79
2021/06/06 00:54:58;;;;;;;22.37;15.72;;;;;;;11.47;80.13;99313.86;4109657;85;21090;-78
2021/06/06 01:01:01;;;;;;;23.02;16.90;;;;;;;11.46;79.87;99316.41;4108227;85;21566;-78
2021/06/06 01:07:04;;;;;;;22.75;16.02;;;;;;;11.50;80.11;99310.95;4107643;85;21136;-78
2021/06/06 01:13:25;;;;;;;23.87;17.32;;;;;;;11.46;79.79;99304.64;4070333;85;21083;-78
2021/06/06 01:19:49;;;;;;;23.50;18.12;;;;;;;11.23;79.54;99317.06;4025513;87;21617;-78
2021/06/06 01:25:58;;;;;;;20.15;14.90;;;;;;;11.24;80.35;99319.23;4146073;85;21117;-79
2021/06/06 01:32:11;;;;;;;25.27;16.95;;;;;;;11.42;80.37;99317.50;4139055;85;21040;-79
2021/06/06 01:38:29;;;;;;;23.45;15.28;;;;;;;11.32;79.88;99309.38;4120522;83;21103;-79
2021/06/06 01:44:34;;;;;;;25.72;17.23;;;;;;;11.12;79.95;99304.40;4154574;85;21076;-79
2021/06/06 01:50:50;;;;;;;26.65;17.50;;;;;;;11.08;80.41;99309.25;4143611;83;21406;-79
2021/06/06 01:56:53;;;;;;;26.52;17.50;;;;;;;11.22;80.41;99310.58;4117150;85;21619;-79
2021/06/06 02:03:04;;;;;;;29.70;17.20;;;;;;;11.13;80.61;99312.24;4149523;85;21553;-79
2021/06/06 02:09:10;;;;;;;33.67;19.48;;;;;;;11.15;80.86;99323.60;4129163;85;21095;-80
2021/06/06 02:15:26;;;;;;;28.80;17.67;;;;;;;11.18;80.80;99322.09;4152536;83;21132;-79
2021/06/06 02:21:29;;;;;;;35.10;19.70;;;;;;;11.05;81.01;99320.15;4149735;85;20987;-79
2021/06/06 02:27:48;;;;;;;30.27;16.75;;;;;;;11.21;81.58;99315.30;4145634;85;21037;-79
2021/06/06 02:34:24;;;;;;;35.73;20.23;;;;;;;11.40;81.57;99312.99;4156481;85;21049;-83
2021/06/06 02:40:31;;;;;;;32.48;18.80;;;;;;;11.30;81.02;99319.11;4159171;84;21116;-79
2021/06/06 02:46:35;;;;;;;;;;;;;;;11.35;81.74;99314.68;4150081;83;21077;-79
2021/06/06 02:52:48;;;;;;;32.53;19.25;;;;;;;11.52;81.71;99313.54;4147902;85;20173;-79
2021/06/06 02:58:56;;;;;;;34.43;19.75;;;;;;;11.55;81.38;99320.22;4148002;85;21568;-79
2021/06/06 03:05:01;;;;;;;35.78;21.27;;;;;;;11.44;80.93;99320.66;4151708;84;21549;-80
2021/06/06 03:11:08;;;;;;;32.17;19.75;;;;;;;11.44;81.58;99317.35;4151919;85;21560;-79
2021/06/06 03:17:25;;;;;;;28.98;18.37;;;;;;;11.42;81.54;99324.34;4165698;84;21109;-79
2021/06/06 03:23:30;;;;;;;33.70;19.75;;;;;;;11.55;81.78;99322.39;4163120;84;22403;-79
2021/06/06 03:29:37;;;;;;;40.23;22.13;;;;;;;11.67;81.54;99320.80;4174879;84;21012;-79
2021/06/06 03:35:39;;;;;;;43.83;24.25;;;;;;;11.65;81.75;99323.11;4157252;84;21062;-79
2021/06/06 03:41:45;;;;;;;29.63;20.25;;;;;;;11.74;81.99;99315.98;4161380;84;21024;-80
2021/06/06 03:47:48;;;;;;;28.10;18.15;;;;;;;11.73;81.95;99322.64;4048309;84;23248;-79
2021/06/06 03:53:50;;;;;;;33.23;20.25;;;;;;;11.88;81.87;99318.30;3945230;89;21163;-79
2021/06/06 03:59:53;;;;;;;28.87;19.05;;;;;;;12.04;81.78;99323.56;4011851;87;21118;-79
2021/06/06 04:05:54;;;;;;;28.10;18.05;;;;;;;12.17;81.62;99329.77;4014396;87;21542;-79
2021/06/06 04:12:05;;;;;;;25.75;18.50;;;;;;;12.27;81.40;99324.98;4008383;87;21076;-79
2021/06/06 04:18:25;;;;;;;23.87;19.00;;;;;;;12.36;81.31;99331.52;4069809;80;107868;-79
2021/06/06 04:24:28;;;;;;;29.02;19.48;;;;;;;12.29;81.45;99327.34;4123282;85;21062;-79
2021/06/06 04:30:30;;;;;;;30.30;18.23;;;;;;;12.16;81.79;99322.71;4095021;85;22284;-79
2021/06/06 04:36:32;;;;;;;30.97;19.80;;;;;;;12.28;81.87;99318.88;4138889;83;21101;-79
2021/06/06 04:42:38;;;;;;;31.52;20.95;;;;;;;12.57;81.74;99328.97;4111396;85;21546;-79
2021/06/06 04:48:44;;;;;;;35.92;21.17;;;;;;;12.67;81.78;99335.72;4139584;84;21530;-80
2021/06/06 04:54:47;;;;;;;32.10;20.92;;;;;;;12.69;81.55;99334.16;4199025;83;21484;-79
2021/06/06 05:00:50;;;;;;;29.32;18.05;;;;;;;12.84;81.83;99339.98;4204533;83;21037;-80
2021/06/06 05:06:52;;;;;;;23.70;16.32;;;;;;;13.06;81.80;99341.72;4218737;83;21638;-79
2021/06/06 05:12:55;;;;;;;39.25;18.45;;;;;;;13.17;81.59;99343.95;4183560;83;21476;-79
2021/06/06 05:18:58;;;;;;;27.40;16.75;;;;;;;13.19;81.47;99339.44;4057634;86;21018;-79
2021/06/06 05:25:01;;;;;;;33.25;18.57;;;;;;;13.23;81.81;99339.69;4053531;86;21118;-77
2021/06/06 05:31:07;;;;;;;25.52;18.20;;;;;;;13.43;81.64;99348.42;4024652;87;21534;-78
2021/06/06 05:37:14;;;;;;;28.25;18.37;;;;;;;13.55;81.86;99345.33;4024033;87;21023;-77
2021/06/06 05:43:20;;;;;;;20.82;15.68;;;;;;;13.58;82.22;99347.31;4036254;86;21997;-80
2021/06/06 05:49:24;;;;;;;13.08;10.95;;;;;;;13.75;82.61;99349.38;4037405;86;21030;-78
2021/06/06 05:55:27;;;;;;;14.70;10.58;;;;;;;14.02;82.41;99344.55;4030616;86;21670;-79
2021/06/06 06:01:29;;;;;;;13.13;10.28;;;;;;;14.32;82.13;99342.87;4029990;86;21109;-78
2021/06/06 06:07:30;;;;;;;14.90;10.88;;;;;;;14.59;82.19;99342.70;4044301;86;21692;-78
2021/06/06 06:13:33;;;;;;;15.25;9.58;;;;;;;14.83;82.32;99352.16;4037876;84;21090;-78
2021/06/06 06:19:35;;;;;;;11.48;9.73;;;;;;;15.10;82.23;99356.05;4141221;84;21058;-78
2021/06/06 06:25:37;;;;;;;11.70;9.78;;;;;;;15.37;82.11;99358.58;4140134;84;21057;-79
2021/06/06 06:31:39;;;;;;;15.28;12.33;;;;;;;15.68;82.07;99367.99;4140670;84;21076;-78
2021/06/06 06:37:44;;;;;;;15.28;12.15;;;;;;;15.93;81.76;99364.54;4136622;84;21064;-78
2021/06/06 06:43:45;;;;;;;16.67;13.05;;;;;;;16.18;81.46;99366.55;4136346;83;21118;-78
2021/06/06 06:49:51;;;;;;;15.28;12.90;;;;;;;16.52;81.25;99359.29;4121752;85;21029;-78
2021/06/06 06:55:56;;;;;;;12.80;11.12;;;;;;;16.94;80.86;99358.95;4121948;85;21876;-78
2021/06/06 07:01:59;;;;;;;16.35;11.80;;;;;;;17.70;81.02;99360.77;4114404;84;21110;-78
2021/06/06 07:08:01;;;;;;;13.88;9.63;;;;;;;18.20;79.76;99356.16;4142553;83;21066;-81
2021/06/06 07:14:03;;;;;;;11.65;9.13;;;;;;;18.94;78.88;99357.04;4220373;82;22259;-80
2021/06/06 07:20:08;;;;;;;12.80;9.85;;;;;;;19.53;78.04;99350.44;4250611;82;20956;-78
2021/06/06 07:26:24;;;;;;;12.93;9.65;;;;;;;20.39;76.69;99346.86;4249546;82;21030;-79
2021/06/06 07:32:27;;;;;;;13.90;9.60;;;;;;;20.97;74.91;99350.69;4248212;81;21028;-79
2021/06/06 07:38:31;;;;;;;15.58;9.55;;;;;;;21.35;74.15;99350.27;4153170;84;21070;-79
2021/06/06 07:44:37;;;;;;;13.62;7.62;;;;;;;21.66;70.94;99346.61;4142446;84;21051;-80
2021/06/06 07:50:44;;;;;;;15.03;8.03;;;;;;;21.89;71.51;99349.00;4156762;84;21096;-81
2021/06/06 08:03:30;;;;;;;14.28;8.30;;;;;;;22.34;68.64;99356.59;4132690;84;21631;-81
2021/06/06 08:09:31;;;;;;;12.45;8.90;;;;;;;22.35;66.75;99350.58;4142999;84;21040;-78
2021/06/06 08:15:33;;;;;;;11.78;9.70;;;;;;;22.40;67.27;99347.23;4156151;81;21117;-79
2021/06/06 08:21:49;;;;;;;15.28;8.60;;;;;;;22.43;66.04;99351.13;4142575;84;21541;-79
2021/06/06 08:27:51;;;;;;;9.77;8.77;;;;;;;22.49;65.01;99345.19;4161170;84;21030;-79
2021/06/06 08:33:53;;;;;;;11.40;8.28;;;;;;;22.54;64.44;99351.01;4165930;83;21063;-81
2021/06/06 08:39:54;;;;;;;8.65;7.75;;;;;;;22.63;63.82;99351.11;4153298;83;21078;-79
2021/06/06 08:46:00;;;;;;;9.85;7.00;;;;;;;22.78;62.39;99356.42;4122131;84;21050;-80
2021/06/06 08:52:35;;;;;;;8.15;7.35;;;;;;;22.67;62.29;99355.19;4159817;84;21596;-79
2021/06/06 08:59:19;;;;;;;7.75;6.12;;;;;;;22.80;61.19;99352.55;4150403;84;21078;-81
2021/06/06 09:05:32;;;;;;;8.13;6.93;;;;;;;22.87;60.11;99345.95;4143135;83;21051;-80
2021/06/06 09:11:35;;;;;;;12.37;7.10;;;;;;;22.95;59.92;99347.28;4121751;85;21080;-79
2021/06/06 09:17:53;;;;;;;9.68;6.42;;;;;;;23.12;59.16;99344.52;4122015;84;21044;-80
2021/06/06 09:24:13;;;;;;;8.03;6.42;;;;;;;23.45;58.99;99340.80;4145384;85;21031;-80
2021/06/06 09:30:22;;;;;;;10.10;6.67;;;;;;;23.48;52.41;99337.89;4131232;85;21050;-80
2021/06/06 09:36:41;;;;;;;9.95;6.90;;;;;;;23.38;55.71;99339.06;4166604;83;21598;-82
2021/06/06 09:42:49;;;;;;;7.37;5.28;;;;;;;22.84;54.66;99336.48;4125364;85;21592;-80
2021/06/06 09:48:51;;;;;;;7.50;5.62;;;;;;;23.09;55.56;99340.63;4159443;84;21045;-80
2021/06/06 09:54:56;;;;;;;12.13;7.05;;;;;;;23.72;54.68;99331.24;4153840;84;21864;-80
2021/06/06 10:01:49;;;;;;;;;;;;;;;;;;;;;
2021/06/06 10:08:09;;;;;;;6.75;5.58;;;;;;;24.03;54.27;99323.70;4061959;84;21092;-80
2021/06/06 10:14:10;;;;;;;8.53;5.53;;;;;;;24.30;51.05;99324.65;4161752;85;21085;-79
2021/06/06 10:20:31;;;;;;;7.03;5.35;;;;;;;23.80;52.61;99324.95;4167751;84;21108;-80
2021/06/06 10:26:58;;;;;;;13.10;6.20;;;;;;;24.30;51.14;99314.86;4142522;85;21064;-80
2021/06/06 10:33:20;;;;;;;7.70;5.47;;;;;;;24.25;52.17;99316.84;4158273;85;21505;-79
2021/06/06 10:39:28;;;;;;;8.10;5.42;;;;;;;24.36;52.02;99311.61;4129200;85;21074;-79
2021/06/06 10:45:35;;;;;;;7.40;5.30;;;;;;;24.89;51.06;99308.68;4134293;84;21045;-78
2021/06/06 10:52:04;;;;;;;6.65;5.17;;;;;;;24.97;50.92;99302.33;4154696;85;21136;-79
2021/06/06 10:58:17;;;;;;;6.55;4.35;;;;;;;25.51;49.78;99295.38;4121237;85;21040;-82
2021/06/06 11:04:27;;;;;;;4.58;2.27;;;;;;;25.68;49.84;99304.25;4165651;85;21588;-81
2021/06/06 11:10:35;;;;;;;3.10;2.10;;;;;;;25.95;46.14;99296.55;4149197;84;21087;-79
2021/06/06 11:16:48;;;;;;;3.00;1.50;;;;;;;26.52;44.10;99299.50;4135185;84;21075;-80
2021/06/06 11:22:49;;;;;;;3.17;2.20;;;;;;;27.13;44.59;99296.83;4108848;85;21112;-80
2021/06/06 11:29:16;;;;;;;4.62;2.15;;;;;;;27.37;41.51;99294.80;4100667;85;21085;-80
2021/06/06 11:35:40;;;;;;;3.77;1.72;;;;;;;27.74;40.97;99288.83;4093603;85;21123;-80
2021/06/06 11:41:45;;;;;;;2.92;2.25;;;;;;;28.13;41.58;99280.48;4116091;84;21095;-80
2021/06/06 11:47:54;;;;;;;3.80;1.90;;;;;;;28.56;40.87;99277.63;4101619;85;21029;-80
2021/06/06 11:53:57;;;;;;;3.42;2.05;;;;;;;28.47;36.51;99265.05;4211477;83;22366;-81
2021/06/06 12:00:23;;;;;;;2.42;1.80;;;;;;;28.76;38.92;99269.20;4237088;82;21021;-82
2021/06/06 12:06:27;;;;;;;2.87;1.95;;;;;;;28.61;35.74;99262.06;4124470;85;21059;-80
2021/06/06 12:12:36;;;;;;;4.37;2.57;;;;;;;28.53;36.69;99258.11;4205531;83;21398;-80
2021/06/06 12:18:41;;;;;;;5.05;2.80;;;;;;;28.31;36.86;99250.70;4218427;83;21355;-80
2021/06/06 12:24:42;;;;;;;3.60;2.80;;;;;;;27.84;36.49;99250.92;4202747;83;22176;-80
2021/06/06 12:31:02;;;;;;;5.25;2.70;;;;;;;27.06;36.72;99248.01;4123840;85;21015;-81
2021/06/06 12:37:12;;;;;;;5.05;3.37;;;;;;;26.67;36.02;99251.27;4136755;83;21027;-80
2021/06/06 12:43:17;;;;;;;5.33;3.10;;;;;;;26.28;36.79;99247.52;4140766;84;21065;-80
2021/06/06 12:49:45;;;;;;;5.20;3.00;;;;;;;26.10;37.87;99234.38;4138892;84;21065;-80
2021/06/06 12:55:51;;;;;;;8.13;3.00;;;;;;;25.93;37.39;99238.74;4141015;84;21831;-79
2021/06/06 13:02:10;;;;;;;7.87;3.30;;;;;;;25.83;37.73;99239.25;4138692;84;21510;-80
2021/06/06 13:08:37;;;;;;;4.62;3.42;;;;;;;25.63;37.42;99231.98;4221924;81;21415;-79
2021/06/06 13:15:03;;;;;;;4.50;3.10;;;;;;;25.41;37.47;99237.00;4008961;83;21045;-83
2021/06/06 13:21:19;;;;;;;4.90;3.33;;;;;;;25.33;37.87;99234.33;4130744;83;21070;-81
2021/06/06 13:27:34;;;;;;;6.53;3.33;;;;;;;25.24;38.37;99230.93;4140567;84;21052;-80
2021/06/06 13:33:36;;;;;;;4.35;2.70;;;;;;;24.82;38.54;99223.59;4142501;84;21570;-80
2021/06/06 13:39:38;;;;;;;5.22;2.98;;;;;;;24.80;38.61;99215.67;4141090;84;21025;-81
2021/06/06 13:45:40;;;;;;;3.10;2.75;;;;;;;24.74;37.73;99220.94;4138189;84;21010;-80
2021/06/06 13:51:43;;;;;;;3.62;2.67;;;;;;;24.74;37.73;99220.94;4139402;85;21535;-81
2021/06/06 13:57:45;;;;;;;3.77;2.37;;;;;;;24.79;37.78;99215.52;4138067;83;21079;-81
2021/06/06 14:03:48;;;;;;;2.87;2.58;;;;;;;24.85;38.36;99212.87;4102118;85;21097;-80
2021/06/06 14:09:50;;;;;;;5.37;2.45;;;;;;;24.96;38.58;99206.97;4220555;83;21537;-79
2021/06/06 14:15:51;;;;;;;6.78;2.05;;;;;;;25.12;38.36;99200.28;4226279;82;21088;-80
2021/06/06 14:21:53;;;;;;;4.00;2.30;;;;;;;25.22;38.26;99204.61;4259270;82;21035;-81
2021/06/06 14:27:55;;;;;;;4.75;2.47;;;;;;;25.35;38.46;99203.24;4171156;84;21125;-80
2021/06/06 14:33:58;;;;;;;4.60;2.65;;;;;;;25.60;38.00;99208.48;4150151;84;21528;-81
2021/06/06 14:40:02;;;;;;;6.47;2.00;;;;;;;25.78;37.15;99209.83;4134486;85;21048;-80
2021/06/06 14:46:04;;;;;;;3.85;1.98;;;;;;;25.76;37.01;99212.31;4144581;85;21002;-81
2021/06/06 14:52:08;;;;;;;2.95;1.90;;;;;;;25.64;36.94;99213.30;4157153;84;21074;-80
2021/06/06 14:58:13;;;;;;;5.17;2.05;;;;;;;25.69;37.04;99207.67;4164186;84;21041;-81
2021/06/06 15:04:15;;;;;;;6.28;2.37;;;;;;;25.76;37.18;99208.11;4147297;84;21082;-80
2021/06/06 15:10:19;;;;;;;2.83;1.85;;;;;;;25.75;37.20;99205.16;4153438;85;21047;-80
2021/06/06 15:16:24;;;;;;;5.20;2.15;;;;;;;25.69;37.11;99206.27;4146198;84;21096;-79
2021/06/06 15:22:29;;;;;;;4.35;1.67;;;;;;;25.53;37.13;99196.19;4145163;84;21589;-78
2021/06/06 15:28:31;;;;;;;4.85;1.90;;;;;;;25.33;36.67;99194.52;4155168;84;21069;-77
2021/06/06 15:34:33;;;;;;;2.42;1.70;;;;;;;25.12;36.91;99195.43;4151863;84;21040;-80
2021/06/06 15:40:40;;;;;;;2.33;1.75;;;;;;;24.72;35.99;99185.02;4153541;84;21101;-81
2021/06/06 15:53:49;;;;;;;3.83;1.82;;;;;;;24.59;36.32;99181.54;4096111;84;20980;-83
2021/06/06 15:59:53;;;;;;;3.95;1.80;;;;;;;24.51;36.62;99178.27;4141752;85;21593;-78
2021/06/06 16:05:58;;;;;;;4.37;1.72;;;;;;;24.40;36.49;99189.12;4126719;84;21036;-79
2021/06/06 16:12:01;;;;;;;2.00;1.67;;;;;;;24.31;36.69;99175.73;4143826;84;21013;-79
2021/06/06 16:18:05;;;;;;;2.75;1.90;;;;;;;24.16;36.67;99169.19;4148493;84;21073;-79
2021/06/06 16:24:07;;;;;;;2.58;1.60;;;;;;;24.08;36.56;99174.91;4103886;85;21085;-80
2021/06/06 16:30:12;;;;;;;3.30;1.80;;;;;;;23.99;36.83;99177.03;4134413;85;21011;-79
2021/06/06 16:36:13;;;;;;;5.42;1.57;;;;;;;23.92;36.64;99172.33;4108187;84;21032;-79
2021/06/06 16:42:16;;;;;;;3.08;1.95;;;;;;;23.85;36.78;99174.02;4227301;83;21048;-80
2021/06/06 16:48:19;;;;;;;2.50;1.80;;;;;;;23.74;36.57;99177.20;4201673;83;20997;-79
2021/06/06 16:54:28;;;;;;;4.67;2.00;;;;;;;23.69;36.46;99180.63;4220856;82;21532;-79
2021/06/06 17:00:36;;;;;;;2.35;1.52;;;;;;;23.64;36.26;99172.83;4204939;83;21281;-79
2021/06/06 17:06:38;;;;;;;2.87;1.90;;;;;;;23.57;36.30;99170.30;4227185;81;20989;-78
2021/06/06 17:12:41;;;;;;;2.77;1.75;;;;;;;23.45;36.98;99171.17;4213617;82;20976;-78
2021/06/06 17:18:44;;;;;;;2.90;1.90;;;;;;;23.25;37.39;99165.16;4224892;83;20990;-79
2021/06/06 17:24:46;;;;;;;6.00;1.95;;;;;;;23.15;38.04;99164.28;4228531;83;20987;-79
2021/06/06 17:30:47;;;;;;;7.20;2.00;;;;;;;22.94;38.46;99161.49;4229207;82;21899;-79
2021/06/06 17:36:49;;;;;;;2.90;1.90;;;;;;;22.81;39.04;99158.76;4209331;82;21029;-80
2021/06/06 17:42:50;;;;;;;3.37;1.70;;;;;;;22.71;39.60;99166.88;4218126;82;21049;-80
2021/06/06 17:48:51;;;;;;;3.25;2.05;;;;;;;22.53;40.23;99170.13;4221907;83;21004;-80
2021/06/06 17:54:53;;;;;;;4.55;2.45;;;;;;;22.32;40.73;99166.01;4285326;82;22021;-79
2021/06/06 18:00:55;;;;;;;3.40;1.98;;;;;;;22.14;41.25;99170.02;4102757;79;9999962;-79
2021/06/06 18:06:57;;;;;;;5.58;1.90;;;;;;;21.96;41.90;99182.33;4242755;81;21049;-79
2021/06/06 18:13:03;;;;;;;6.53;3.02;;;;;;;21.81;42.42;99177.66;4274189;83;21003;-79
2021/06/06 18:19:07;;;;;;;4.70;2.75;;;;;;;21.60;42.97;99179.84;4228635;82;20999;-79
2021/06/06 18:25:16;;;;;;;5.53;2.85;;;;;;;21.38;43.80;99187.27;4199557;83;21014;-79
2021/06/06 18:31:22;;;;;;;6.67;3.67;;;;;;;21.08;44.83;99187.73;4174866;83;21056;-79
2021/06/06 18:37:24;;;;;;;7.95;3.30;;;;;;;20.76;45.65;99201.73;4186452;84;21071;-79
2021/06/06 18:43:26;;;;;;;6.42;3.77;;;;;;;20.39;46.56;99202.28;4175843;83;21038;-79
2021/06/06 18:49:29;;;;;;;7.95;4.20;;;;;;;20.12;47.33;99211.47;4183436;84;21421;-79
2021/06/06 18:55:42;;;;;;;6.87;4.62;;;;;;;19.76;48.23;99206.56;4184208;84;21546;-78
2021/06/06 19:01:48;;;;;;;8.63;5.53;;;;;;;19.42;49.10;99211.05;4038431;84;10000271;-78
2021/06/06 19:07:51;;;;;;;11.63;5.33;;;;;;;19.08;49.86;99217.47;4184490;85;21041;-78
2021/06/06 19:13:52;;;;;;;7.03;4.75;;;;;;;18.77;50.88;99225.00;4158815;84;21624;-78
2021/06/06 19:19:55;;;;;;;10.13;5.12;;;;;;;18.57;51.47;99225.73;4122619;84;21380;-78
2021/06/06 19:25:57;;;;;;;7.30;5.12;;;;;;;18.27;52.41;99236.92;4102094;85;21859;-79
2021/06/06 19:31:59;;;;;;;9.73;6.78;;;;;;;18.10;53.28;99239.96;4224192;83;21061;-78
2021/06/06 19:38:01;;;;;;;8.88;5.55;;;;;;;17.94;53.81;99255.03;4217115;81;21025;-78
2021/06/06 19:44:04;;;;;;;13.22;5.70;;;;;;;17.65;54.51;99257.40;4221176;83;21045;-78
2021/06/06 19:50:10;;;;;;;7.55;4.97;;;;;;;17.49;55.43;99262.77;4225332;83;21906;-78
2021/06/06 19:56:17;;;;;;;8.57;5.43;;;;;;;17.38;56.45;99275.13;4217149;82;21463;-78
2021/06/06 20:02:20;;;;;;;11.00;6.07;;;;;;;17.26;57.53;99280.58;4246621;82;21044;-79
2021/06/06 20:08:30;;;;;;;10.32;6.75;;;;;;;17.11;58.16;99282.73;4213798;81;21604;-78
2021/06/06 20:14:44;;;;;;;14.00;7.12;;;;;;;16.96;58.07;99283.30;4226935;83;21114;-78
2021/06/06 20:20:46;;;;;;;10.45;6.08;;;;;;;16.66;58.63;99284.56;4224374;82;21026;-80
2021/06/06 20:26:48;;;;;;;12.35;5.80;;;;;;;16.49;59.48;99291.02;4255932;82;21095;-78
2021/06/06 20:32:56;;;;;;;9.75;5.87;;;;;;;16.54;60.31;99298.85;4260623;82;21015;-81
2021/06/06 20:38:58;;;;;;;10.30;7.45;;;;;;;16.50;60.78;99291.99;4168403;83;21069;-78
2021/06/06 20:45:07;;;;;;;10.30;7.13;;;;;;;16.55;61.21;99294.30;4137963;84;21069;-78
2021/06/06 20:51:09;;;;;;;12.88;8.18;;;;;;;16.42;61.68;99294.59;4169295;84;21095;-77
2021/06/06 20:57:16;;;;;;;9.70;7.03;;;;;;;16.24;61.65;99287.63;4165701;84;21092;-78
2021/06/06 21:03:22;;;;;;;12.40;7.37;;;;;;;16.11;62.76;99286.52;4173267;84;21062;-78
2021/06/06 21:09:24;;;;;;;12.30;8.63;;;;;;;16.05;63.14;99289.52;4169845;84;21049;-78
2021/06/06 21:15:28;;;;;;;17.77;10.23;;;;;;;15.93;63.14;99290.00;4187960;83;21076;-77
2021/06/06 21:21:29;;;;;;;13.50;9.18;;;;;;;15.58;63.48;99291.72;4152475;84;21573;-78
2021/06/06 21:27:32;;;;;;;13.15;8.60;;;;;;;15.35;63.97;99298.29;4143592;85;21031;-77
2021/06/06 21:33:35;;;;;;;15.08;10.03;;;;;;;14.98;64.66;99311.78;4140920;84;21076;-77
2021/06/06 21:39:36;;;;;;;16.62;9.83;;;;;;;14.98;70.52;99301.34;4147285;83;21075;-78
2021/06/06 21:45:39;;;;;;;18.32;9.85;;;;;;;14.78;67.02;99310.62;4151693;84;21033;-77
2021/06/06 21:51:42;;;;;;;20.23;9.50;;;;;;;14.72;66.83;99316.92;4149606;83;21073;-79
2021/06/06 21:57:43;;;;;;;18.02;10.43;;;;;;;14.62;69.71;99303.34;4136839;85;22019;-77
2021/06/06 22:03:45;;;;;;;19.20;10.10;;;;;;;14.50;68.68;99305.09;4147056;84;21012;-77
2021/06/06 22:09:46;;;;;;;19.02;10.10;;;;;;;14.42;68.54;99305.50;4174433;84;21916;-78
2021/06/06 22:15:48;;;;;;;17.37;10.43;;;;;;;14.46;68.85;99309.03;4146835;84;21034;-78
2021/06/06 22:22:45;;;;;;;20.52;10.45;;;;;;;14.41;69.00;99303.33;4147692;84;21041;-79
2021/06/06 22:29:42;;;;;;;17.32;9.50;;;;;;;14.25;69.16;99310.41;4158916;83;21007;-77
2021/06/06 22:36:40;;;;;;;13.53;9.40;;;;;;;14.25;69.68;99311.17;4156170;83;21046;-78
2021/06/06 22:43:38;;;;;;;15.83;9.68;;;;;;;14.09;69.93;99317.02;4161710;84;21578;-78
2021/06/06 22:50:35;;;;;;;15.20;9.58;;;;;;;14.14;70.57;99324.90;4155180;84;21069;-77
2021/06/06 22:57:33;;;;;;;16.53;9.80;;;;;;;14.20;70.70;99322.56;4158070;84;21123;-79
2021/06/06 23:04:30;;;;;;;16.67;10.20;;;;;;;14.15;70.93;99333.38;4152222;84;21021;-78
2021/06/06 23:11:27;;;;;;;14.87;9.53;;;;;;;13.91;70.61;99329.96;4156929;83;21003;-78
2021/06/06 23:17:29;;;;;;;12.25;9.73;;;;;;;13.64;71.15;99330.05;4118361;84;21052;-78
2021/06/06 23:23:32;;;;;;;11.50;8.30;;;;;;;13.50;71.59;99332.73;4114932;84;21084;-78
2021/06/06 23:29:34;;;;;;;12.07;7.85;;;;;;;13.50;72.10;99338.84;4101909;85;21053;-78
2021/06/06 23:35:35;;;;;;;13.13;8.75;;;;;;;13.50;72.45;99332.73;4098827;85;21600;-78
2021/06/06 23:41:38;;;;;;;12.35;9.53;;;;;;;13.62;72.40;99336.55;4105864;85;21096;-78
2021/06/06 23:47:39;;;;;;;16.37;8.75;;;;;;;13.56;72.13;99342.80;4215885;83;21079;-78
2021/06/06 23:53:41;;;;;;;11.88;8.03;;;;;;;13.40;72.22;99349.20;4125662;85;21019;-78
2021/06/06 23:59:43;;;;;;;13.98;9.35;;;;;;;13.35;72.82;99339.93;4214263;81;22150;-83
